createdAt,value
2018-09-10T00:00:38.220Z,37.40
2018-09-10T00:05:41.728Z,37.29
2018-09-10T00:10:45.223Z,37.28
2018-09-10T00:15:48.691Z,37.28
2018-09-10T00:20:52.148Z,37.41
2018-09-10T00:25:55.627Z,36.97
2018-09-10T00:30:59.199Z,37.14
2018-09-10T00:36:02.642Z,37.40
2018-09-10T00:41:06.088Z,37.20
2018-09-10T00:46:09.527Z,37.12
2018-09-10T00:51:12.960Z,37.42
2018-09-10T00:56:16.402Z,37.15
2018-09-10T01:01:19.868Z,37.13
2018-09-10T01:06:23.330Z,37.29
2018-09-10T01:11:26.775Z,37.49
2018-09-10T01:16:30.333Z,37.58
2018-09-10T01:21:33.816Z,37.50
2018-09-10T01:26:37.281Z,37.40
2018-09-10T01:31:40.737Z,37.32
2018-09-10T01:36:44.179Z,37.52
2018-09-10T01:41:47.628Z,37.54
2018-09-10T01:46:51.064Z,37.36
2018-09-10T01:51:54.527Z,37.23
2018-09-10T01:56:57.984Z,37.36
2018-09-10T02:02:01.433Z,37.16
2018-09-10T02:07:05.070Z,37.25
2018-09-10T02:12:12.643Z,37.17
2018-09-10T02:17:16.168Z,37.44
2018-09-10T02:22:19.691Z,37.17
2018-09-10T02:27:23.176Z,37.12
2018-09-10T02:32:26.616Z,37.04
2018-09-10T02:37:30.086Z,37.32
2018-09-10T02:42:33.563Z,37.11
2018-09-10T02:47:37.004Z,36.91
2018-09-10T02:52:40.443Z,36.88
2018-09-10T02:57:43.928Z,36.99
2018-09-10T03:02:47.404Z,36.88
2018-09-10T03:07:50.841Z,36.86
2018-09-10T03:12:55.169Z,36.82
2018-09-10T03:17:58.721Z,37.01
2018-09-10T03:23:02.091Z,37.14
2018-09-10T03:28:05.644Z,37.05
2018-09-10T03:33:09.131Z,37.11
2018-09-10T03:38:12.582Z,37.35
2018-09-10T03:43:16.039Z,37.65
2018-09-10T03:48:19.510Z,37.81
2018-09-10T03:53:22.965Z,37.67
2018-09-10T03:58:26.413Z,37.82
2018-09-10T04:03:29.871Z,38.05
2018-09-10T04:08:33.313Z,38.46
2018-09-10T04:13:36.781Z,38.29
2018-09-10T04:18:40.220Z,38.28
2018-09-10T04:23:43.679Z,38.21
2018-09-10T04:28:47.126Z,38.43
2018-09-10T04:33:50.555Z,38.42
2018-09-10T04:38:54.011Z,38.82
2018-09-10T04:43:57.449Z,38.55
2018-09-10T04:49:00.891Z,38.58
2018-09-10T04:54:04.853Z,38.81
2018-09-10T04:59:08.275Z,38.57
2018-09-10T05:04:11.730Z,39.03
2018-09-10T05:09:15.215Z,38.53
2018-09-10T05:14:18.641Z,38.62
2018-09-10T05:19:22.084Z,38.96
2018-09-10T05:24:25.528Z,38.74
2018-09-10T05:29:28.952Z,38.71
2018-09-10T05:34:32.398Z,39.17
2018-09-10T05:39:35.853Z,38.79
2018-09-10T05:44:39.291Z,39.21
2018-09-10T05:49:42.738Z,39.16
2018-09-10T05:54:46.187Z,38.92
2018-09-10T05:59:49.635Z,39.24
2018-09-10T06:04:53.076Z,39.29
2018-09-10T06:09:56.521Z,38.86
2018-09-10T06:14:59.965Z,39.34
2018-09-10T06:20:03.495Z,39.08
2018-09-10T06:25:06.918Z,38.94
2018-09-10T06:30:10.359Z,39.27
2018-09-10T06:35:13.838Z,39.26
2018-09-10T06:40:17.279Z,39.33
2018-09-10T06:45:20.727Z,39.07
2018-09-10T06:50:24.384Z,39.47
2018-09-10T06:55:27.812Z,39.21
2018-09-10T07:00:31.251Z,39.37
2018-09-10T07:05:34.725Z,40.60
2018-09-10T07:10:39.002Z,41.81
2018-09-10T07:15:43.271Z,41.67
2018-09-10T07:20:46.806Z,41.55
2018-09-10T07:25:50.247Z,41.98
2018-09-10T07:30:54.282Z,42.30
2018-09-10T07:35:57.767Z,41.95
2018-09-10T07:41:02.098Z,41.77
2018-09-10T07:46:06.184Z,41.64
2018-09-10T07:51:09.666Z,41.53
2018-09-10T07:56:13.095Z,40.69
2018-09-10T08:01:16.534Z,41.21
2018-09-10T08:06:19.965Z,41.47
2018-09-10T08:11:23.419Z,41.59
2018-09-10T08:16:26.907Z,41.51
2018-09-10T08:21:30.403Z,40.27
2018-09-10T08:26:33.860Z,39.88
2018-09-10T08:31:37.314Z,39.95
2018-09-10T08:36:40.759Z,39.74
2018-09-10T08:41:44.205Z,38.67
2018-09-10T08:46:47.731Z,38.60
2018-09-10T08:51:51.174Z,38.72
2018-09-10T08:56:54.815Z,38.53
2018-09-10T09:01:58.265Z,39.00
2018-09-10T09:07:01.708Z,38.09
2018-09-10T09:12:05.167Z,37.65
2018-09-10T09:17:08.607Z,37.10
2018-09-10T09:22:12.043Z,36.75
2018-09-10T09:27:15.512Z,36.42
2018-09-10T09:32:18.950Z,36.51
2018-09-10T09:37:27.795Z,34.65
2018-09-10T09:42:36.663Z,35.19
2018-09-10T09:47:40.107Z,36.81
2018-09-10T09:52:43.562Z,36.79
2018-09-10T09:57:47.107Z,36.37
2018-09-10T10:02:56.730Z,36.38
2018-09-10T10:08:00.163Z,36.16
2018-09-10T10:13:03.620Z,36.49
2018-09-10T10:18:07.061Z,36.43
2018-09-10T10:23:10.586Z,36.77
2018-09-10T10:28:14.083Z,35.42
2018-09-10T10:33:17.503Z,35.17
2018-09-10T10:38:20.947Z,34.00
2018-09-10T10:43:24.405Z,34.90
2018-09-10T10:48:27.831Z,34.05
2018-09-10T10:53:31.292Z,33.05
2018-09-10T10:58:34.783Z,32.45
2018-09-10T11:03:38.907Z,31.90
2018-09-10T11:08:42.412Z,31.51
2018-09-10T11:13:45.848Z,31.44
2018-09-10T11:18:49.301Z,31.86
2018-09-10T11:23:52.770Z,31.48
2018-09-10T11:28:56.203Z,31.97
2018-09-10T11:33:59.667Z,31.70
2018-09-10T11:39:03.215Z,32.33
2018-09-10T11:44:06.807Z,32.48
2018-09-10T11:49:10.275Z,31.98
2018-09-10T11:54:13.716Z,32.52
2018-09-10T11:59:17.427Z,32.43
2018-09-10T12:04:20.897Z,32.44
2018-09-10T12:09:24.356Z,31.43
2018-09-10T12:14:27.799Z,32.33
2018-09-10T12:19:31.728Z,31.42
2018-09-10T12:24:35.207Z,31.02
2018-09-10T12:29:38.650Z,32.31
2018-09-10T12:34:42.140Z,32.33
2018-09-10T12:39:45.707Z,32.37
2018-09-10T12:44:49.084Z,32.69
2018-09-10T12:49:52.531Z,31.33
2018-09-10T12:54:56.043Z,31.62
2018-09-10T12:59:59.480Z,32.07
2018-09-10T13:05:02.965Z,31.95
2018-09-10T13:10:07.015Z,32.09
2018-09-10T13:15:10.460Z,32.45
2018-09-10T13:20:13.979Z,32.88
2018-09-10T13:25:17.435Z,32.88
2018-09-10T13:30:20.868Z,33.10
2018-09-10T13:35:24.333Z,33.29
2018-09-10T13:40:27.780Z,33.58
2018-09-10T13:45:31.329Z,33.26
2018-09-10T13:50:34.833Z,33.73
2018-09-10T13:55:38.296Z,33.28
2018-09-10T14:00:41.743Z,33.08
2018-09-10T14:05:45.200Z,33.32
2018-09-10T14:10:48.716Z,32.87
2018-09-10T14:15:53.914Z,32.62
2018-09-10T14:20:57.421Z,32.61
2018-09-10T14:26:00.866Z,33.05
2018-09-10T14:31:04.540Z,33.06
2018-09-10T14:36:08.203Z,33.21
2018-09-10T14:41:12.026Z,33.14
2018-09-10T14:46:15.508Z,33.59
2018-09-10T14:51:18.947Z,33.65
2018-09-10T14:56:22.446Z,34.16
2018-09-10T15:01:26.016Z,34.46
2018-09-10T15:06:29.531Z,34.30
2018-09-10T15:11:32.970Z,34.73
2018-09-10T15:16:36.531Z,34.96
2018-09-10T15:21:40.064Z,35.35
2018-09-10T15:26:43.518Z,34.92
2018-09-10T15:31:47.063Z,35.78
2018-09-10T15:36:50.553Z,35.16
2018-09-10T15:41:54.010Z,35.59
2018-09-10T15:46:57.524Z,35.55
2018-09-10T15:52:01.161Z,35.26
2018-09-10T15:57:04.618Z,35.17
2018-09-10T16:02:08.088Z,34.77
2018-09-10T16:07:11.608Z,34.81
2018-09-10T16:12:15.049Z,35.11
2018-09-10T16:17:18.486Z,36.16
2018-09-10T16:22:21.955Z,37.20
2018-09-10T16:27:25.416Z,36.75
2018-09-10T16:32:28.890Z,36.99
2018-09-10T16:37:32.323Z,36.76
2018-09-10T16:42:35.758Z,36.93
2018-09-10T16:47:39.332Z,36.74
2018-09-10T16:52:42.920Z,36.97
2018-09-10T16:57:46.445Z,37.05
2018-09-10T17:02:50.168Z,36.62
2018-09-10T17:07:53.695Z,35.97
2018-09-10T17:12:57.197Z,35.91
2018-09-10T17:18:00.688Z,35.11
2018-09-10T17:23:04.163Z,34.78
2018-09-10T17:28:07.755Z,35.06
2018-09-10T17:33:11.361Z,35.30
2018-09-10T17:38:15.217Z,35.05
2018-09-10T17:43:18.704Z,35.67
2018-09-10T17:48:22.216Z,34.93
2018-09-10T17:53:25.802Z,34.87
2018-09-10T17:58:29.322Z,34.65
2018-09-10T18:03:32.799Z,34.73
2018-09-10T18:08:36.625Z,34.88
2018-09-10T18:13:40.120Z,34.55
2018-09-10T18:18:43.614Z,34.65
2018-09-10T18:23:47.152Z,35.37
2018-09-10T18:28:50.624Z,35.19
2018-09-10T18:33:54.092Z,35.01
2018-09-10T18:38:57.559Z,35.14
2018-09-10T18:44:01.144Z,35.10
2018-09-10T18:49:04.651Z,34.81
2018-09-10T18:54:08.064Z,35.64
2018-09-10T18:59:11.523Z,35.42
2018-09-10T19:04:15.057Z,35.74
2018-09-10T19:09:18.552Z,35.84
2018-09-10T19:14:22.505Z,35.91
2018-09-10T19:19:26.656Z,35.63
2018-09-10T19:24:30.552Z,35.37
2018-09-10T19:29:34.591Z,35.29
2018-09-10T19:34:38.653Z,35.95
2018-09-10T19:39:43.093Z,35.61
2018-09-10T19:44:47.451Z,35.55
2018-09-10T19:49:50.900Z,35.60
2018-09-10T19:54:54.386Z,35.97
2018-09-10T19:59:57.836Z,35.62
2018-09-10T20:05:01.425Z,36.31
2018-09-10T20:10:05.574Z,36.42
2018-09-10T20:15:10.885Z,36.04
2018-09-10T20:20:14.601Z,36.47
2018-09-10T20:25:18.143Z,36.22
2018-09-10T20:30:21.637Z,36.65
2018-09-10T20:35:25.110Z,36.52
2018-09-10T20:40:28.666Z,36.53
2018-09-10T20:45:32.260Z,36.83
2018-09-10T20:50:35.770Z,36.70
2018-09-10T20:55:39.415Z,37.24
2018-09-10T21:00:42.876Z,36.97
2018-09-10T21:05:46.487Z,37.55
2018-09-10T21:10:50.213Z,37.23
2018-09-10T21:15:53.727Z,37.10
2018-09-10T21:20:57.204Z,37.55
2018-09-10T21:26:00.701Z,37.30
2018-09-10T21:31:04.250Z,38.05
2018-09-10T21:36:07.696Z,37.84
2018-09-10T21:41:11.203Z,38.47
2018-09-10T21:46:14.697Z,38.23
2018-09-10T21:51:18.174Z,38.32
2018-09-10T21:56:21.744Z,37.92
2018-09-10T22:01:25.285Z,38.11
2018-09-10T22:06:28.797Z,38.36
2018-09-10T22:11:32.414Z,38.43
2018-09-10T22:16:36.317Z,38.69
2018-09-10T22:21:39.912Z,38.72
2018-09-10T22:26:43.496Z,38.78
2018-09-10T22:31:47.005Z,38.82
2018-09-10T22:36:50.454Z,38.86
2018-09-10T22:41:54.059Z,38.97
2018-09-10T22:46:58.160Z,39.04
2018-09-10T22:52:01.656Z,39.13
2018-09-10T22:57:05.199Z,39.02
2018-09-10T23:02:08.669Z,39.02
2018-09-10T23:07:12.111Z,38.79
2018-09-10T23:12:16.056Z,39.05
2018-09-10T23:17:19.502Z,38.97
2018-09-10T23:22:22.946Z,38.79
2018-09-10T23:27:26.403Z,39.02
2018-09-10T23:32:29.836Z,39.38
2018-09-10T23:37:33.294Z,39.28
2018-09-10T23:42:36.752Z,39.56
2018-09-10T23:47:40.232Z,39.48
2018-09-10T23:52:43.683Z,40.00
2018-09-10T23:57:47.356Z,39.82
